createdAt,value
2023-04-05T00:01:01.188Z,39.30
2023-04-05T00:03:29.024Z,39.40
2023-04-05T00:05:56.048Z,39.40
2023-04-05T00:08:26.933Z,39.40
2023-04-05T00:10:56.696Z,39.50
2023-04-05T00:13:28.499Z,39.50
2023-04-05T00:15:58.299Z,39.50
2023-04-05T00:18:26.082Z,39.60
2023-04-05T00:20:54.161Z,39.60
2023-04-05T00:23:21.504Z,39.70
2023-04-05T00:25:48.713Z,39.70
2023-04-05T00:28:15.601Z,40.40
2023-04-05T00:30:42.664Z,39.70
2023-04-05T00:33:09.940Z,39.70
2023-04-05T00:35:37.151Z,39.60
2023-04-05T00:38:07.134Z,39.70
2023-04-05T00:40:34.151Z,39.70
2023-04-05T00:43:03.556Z,39.70
2023-04-05T00:45:35.030Z,39.70
2023-04-05T00:48:02.019Z,39.80
2023-04-05T00:50:30.914Z,39.90
2023-04-05T00:52:58.748Z,39.90
2023-04-05T00:55:26.878Z,40.00
2023-04-05T00:57:55.920Z,40.10
2023-04-05T01:00:23.157Z,40.10
2023-04-05T01:03:01.697Z,40.10
2023-04-05T01:05:47.756Z,40.10
2023-04-05T01:08:38.988Z,40.20
2023-04-05T01:11:07.089Z,40.20
2023-04-05T01:13:36.956Z,40.20
2023-04-05T01:16:04.512Z,40.30
2023-04-05T01:18:33.003Z,40.30
2023-04-05T01:21:39.233Z,40.40
2023-04-05T01:24:38.652Z,40.50
2023-04-05T01:27:14.964Z,40.40
2023-04-05T01:30:04.382Z,40.40
2023-04-05T01:33:00.526Z,40.50
2023-04-05T01:35:47.544Z,40.50
2023-04-05T01:38:19.237Z,40.50
2023-04-05T01:40:46.276Z,40.50
2023-04-05T01:43:15.298Z,40.70
2023-04-05T01:45:45.875Z,40.50
2023-04-05T01:48:14.374Z,40.50
2023-04-05T01:50:41.689Z,40.60
2023-04-05T01:53:14.000Z,40.60
2023-04-05T01:55:40.894Z,40.70
2023-04-05T01:58:08.961Z,40.70
2023-04-05T02:00:38.408Z,40.80
2023-04-05T02:03:10.168Z,40.80
2023-04-05T02:05:37.108Z,40.80
2023-04-05T02:08:06.314Z,40.80
2023-04-05T02:10:33.230Z,40.80
2023-04-05T02:13:00.119Z,40.80
2023-04-05T02:15:26.992Z,40.80
2023-04-05T02:17:56.135Z,40.80
2023-04-05T02:20:25.916Z,40.90
2023-04-05T02:22:55.891Z,40.80
2023-04-05T02:25:25.718Z,40.90
2023-04-05T02:27:52.703Z,40.90
2023-04-05T02:30:19.650Z,41.00
2023-04-05T02:32:46.533Z,41.60
2023-04-05T02:35:13.519Z,41.00
2023-04-05T02:37:41.667Z,41.00
2023-04-05T02:40:13.573Z,41.00
2023-04-05T02:42:43.500Z,41.00
2023-04-05T02:45:13.064Z,41.00
2023-04-05T02:47:39.971Z,41.00
2023-04-05T02:50:09.919Z,41.00
2023-04-05T02:52:39.439Z,41.00
2023-04-05T02:55:09.176Z,41.10
2023-04-05T02:57:36.049Z,41.10
2023-04-05T03:00:05.321Z,41.10
2023-04-05T03:02:32.367Z,41.10
2023-04-05T03:05:02.445Z,41.80
2023-04-05T03:07:29.581Z,41.20
2023-04-05T03:09:59.517Z,41.20
2023-04-05T03:12:26.527Z,41.20
2023-04-05T03:14:56.026Z,41.20
2023-04-05T03:17:22.953Z,41.30
2023-04-05T03:19:52.855Z,41.30
2023-04-05T03:22:19.695Z,41.30
2023-04-05T03:24:46.702Z,41.30
2023-04-05T03:27:16.017Z,41.20
2023-04-05T03:29:43.103Z,41.30
2023-04-05T03:32:13.995Z,41.30
2023-04-05T03:34:40.939Z,41.40
2023-04-05T03:37:07.898Z,41.40
2023-04-05T03:39:34.877Z,41.50
2023-04-05T03:42:01.757Z,41.50
2023-04-05T03:44:31.222Z,41.60
2023-04-05T03:46:58.677Z,41.60
2023-04-05T03:49:26.285Z,41.60
2023-04-05T03:51:57.624Z,41.60
2023-04-05T03:54:29.245Z,41.50
2023-04-05T03:57:01.191Z,41.60
2023-04-05T03:59:28.042Z,41.80
2023-04-05T04:01:57.405Z,41.70
2023-04-05T04:04:28.141Z,41.40
2023-04-05T04:06:58.147Z,41.60
2023-04-05T04:09:25.175Z,41.70
2023-04-05T04:11:57.205Z,41.70
2023-04-05T04:14:29.394Z,41.80
2023-04-05T04:16:56.277Z,41.80
2023-04-05T04:19:28.297Z,41.80
2023-04-05T04:21:59.279Z,41.90
2023-04-05T04:24:27.096Z,41.90
2023-04-05T04:26:56.147Z,42.00
2023-04-05T04:29:33.511Z,42.00
2023-04-05T04:32:01.668Z,42.00
2023-04-05T04:34:30.538Z,42.00
2023-04-05T04:37:00.700Z,42.10
2023-04-05T04:39:31.403Z,42.00
2023-04-05T04:41:58.605Z,42.10
2023-04-05T04:44:31.118Z,42.10
2023-04-05T04:46:58.339Z,42.10
2023-04-05T04:49:26.052Z,42.10
2023-04-05T04:51:52.991Z,42.10
2023-04-05T04:54:22.376Z,42.10
2023-04-05T04:56:49.266Z,42.10
2023-04-05T04:59:19.316Z,42.10
2023-04-05T05:01:46.602Z,42.10
2023-04-05T05:04:20.685Z,42.20
2023-04-05T05:06:53.708Z,42.30
2023-04-05T05:09:20.770Z,42.30
2023-04-05T05:11:47.671Z,42.30
2023-04-05T05:14:14.541Z,42.40
2023-04-05T05:16:41.647Z,42.40
2023-04-05T05:19:13.073Z,42.50
2023-04-05T05:21:39.966Z,42.50
2023-04-05T05:24:10.106Z,42.60
2023-04-05T05:26:38.175Z,42.60
2023-04-05T05:29:05.131Z,42.60
2023-04-05T05:31:33.547Z,42.70
2023-04-05T05:34:00.571Z,42.70
2023-04-05T05:36:27.981Z,42.70
2023-04-05T05:38:55.152Z,42.80
2023-04-05T05:41:22.445Z,42.80
2023-04-05T05:43:49.370Z,42.90
2023-04-05T05:46:16.413Z,42.90
2023-04-05T05:48:48.034Z,42.90
2023-04-05T05:51:14.933Z,43.00
2023-04-05T05:53:47.234Z,43.10
2023-04-05T05:56:14.149Z,43.00
2023-04-05T05:58:43.816Z,43.00
2023-04-05T06:01:12.816Z,43.20
2023-04-05T06:03:39.884Z,43.20
2023-04-05T06:06:08.568Z,43.20
2023-04-05T06:08:38.571Z,43.20
2023-04-05T06:11:07.970Z,43.30
2023-04-05T06:13:34.876Z,43.30
2023-04-05T06:16:02.631Z,43.30
2023-04-05T06:18:29.800Z,43.40
2023-04-05T06:20:58.890Z,43.50
2023-04-05T06:23:28.768Z,43.50
2023-04-05T06:25:57.125Z,43.50
2023-04-05T06:28:23.980Z,43.60
2023-04-05T06:30:50.896Z,43.70
2023-04-05T06:33:20.006Z,43.60
2023-04-05T06:35:47.223Z,43.60
2023-04-05T06:38:16.454Z,43.50
2023-04-05T06:40:43.501Z,43.60
2023-04-05T06:43:12.919Z,43.50
2023-04-05T06:45:39.894Z,43.50
2023-04-05T06:48:09.255Z,43.40
2023-04-05T06:50:38.337Z,43.40
2023-04-05T06:53:05.364Z,43.60
2023-04-05T06:55:32.954Z,43.60
2023-04-05T06:57:59.854Z,43.60
2023-04-05T07:00:26.826Z,43.60
2023-04-05T07:02:53.714Z,43.50
2023-04-05T07:05:20.620Z,43.50
2023-04-05T07:07:48.814Z,43.60
2023-04-05T07:10:18.904Z,43.70
2023-04-05T07:12:45.924Z,43.80
2023-04-05T07:15:12.899Z,43.80
2023-04-05T07:17:42.943Z,43.90
2023-04-05T07:20:12.614Z,44.00
2023-04-05T07:22:39.668Z,44.00
2023-04-05T07:25:09.715Z,44.00
2023-04-05T07:27:36.811Z,43.90
2023-04-05T07:30:04.328Z,43.70
2023-04-05T07:32:31.318Z,43.30
2023-04-05T07:34:58.308Z,42.70
2023-04-05T07:37:25.954Z,41.80
2023-04-05T07:39:53.196Z,41.00
2023-04-05T07:42:21.545Z,40.10
2023-04-05T07:44:50.897Z,39.20
2023-04-05T07:47:21.467Z,38.50
2023-04-05T07:49:50.970Z,37.80
2023-04-05T07:52:17.918Z,37.40
2023-04-05T07:54:45.905Z,37.40
2023-04-05T07:57:19.864Z,37.20
2023-04-05T07:59:48.120Z,36.50
2023-04-05T08:02:17.104Z,36.90
2023-04-05T08:04:46.240Z,36.50
2023-04-05T08:07:15.822Z,36.20
2023-04-05T08:09:45.051Z,35.90
2023-04-05T08:12:14.221Z,35.40
2023-04-05T08:14:42.313Z,34.90
2023-04-05T08:17:12.065Z,34.20
2023-04-05T08:19:38.945Z,33.70
2023-04-05T08:22:10.688Z,33.20
2023-04-05T08:24:37.607Z,32.70
2023-04-05T08:27:04.607Z,32.30
2023-04-05T08:29:31.611Z,31.90
2023-04-05T08:32:01.289Z,31.70
2023-04-05T08:34:28.215Z,31.40
2023-04-05T08:37:01.956Z,31.20
2023-04-05T08:39:32.018Z,30.80
2023-04-05T08:42:06.553Z,30.90
2023-04-05T08:44:37.479Z,30.60
2023-04-05T08:47:04.663Z,30.60
2023-04-05T08:49:31.730Z,30.90
2023-04-05T08:52:04.244Z,30.60
2023-04-05T08:54:31.290Z,30.40
2023-04-05T08:57:03.937Z,30.30
2023-04-05T08:59:32.599Z,30.30
2023-04-05T09:02:02.095Z,30.20
2023-04-05T09:04:32.797Z,30.00
2023-04-05T09:07:03.960Z,29.80
2023-04-05T09:09:36.196Z,30.00
2023-04-05T09:12:08.010Z,29.90
2023-04-05T09:14:37.100Z,29.70
2023-04-05T09:17:06.499Z,29.80
2023-04-05T09:19:33.583Z,29.80
2023-04-05T09:22:04.064Z,30.00
2023-04-05T09:24:43.265Z,30.00
2023-04-05T09:27:18.166Z,29.90
2023-04-05T09:29:49.965Z,29.90
2023-04-05T09:32:23.395Z,30.10
2023-04-05T09:35:01.032Z,30.10
2023-04-05T09:37:28.061Z,30.00
2023-04-05T09:40:07.029Z,30.10
2023-04-05T09:42:47.986Z,29.50
2023-04-05T09:45:22.467Z,29.30
2023-04-05T09:47:57.604Z,29.50
2023-04-05T09:50:27.396Z,29.20
2023-04-05T09:53:16.207Z,29.40
2023-04-05T09:55:43.904Z,29.00
2023-04-05T09:58:19.258Z,29.30
2023-04-05T10:00:57.860Z,29.00
2023-04-05T10:03:48.337Z,29.50
2023-04-05T10:06:19.051Z,28.90
2023-04-05T10:08:48.370Z,29.00
2023-04-05T10:11:21.739Z,29.10
2023-04-05T10:13:50.810Z,28.70
2023-04-05T10:16:22.695Z,28.50
2023-04-05T10:18:53.473Z,28.10
2023-04-05T10:21:34.018Z,27.90
2023-04-05T10:24:40.678Z,28.00
2023-04-05T10:27:42.165Z,28.20
2023-04-05T10:30:10.254Z,27.90
2023-04-05T10:32:58.288Z,28.30
2023-04-05T10:35:52.898Z,28.00
2023-04-05T10:38:30.589Z,28.20
2023-04-05T10:41:11.553Z,28.20
2023-04-05T10:43:41.143Z,27.90
2023-04-05T10:46:08.870Z,28.20
2023-04-05T10:49:04.151Z,27.90
2023-04-05T10:51:34.672Z,27.20
2023-04-05T10:54:02.747Z,26.90
2023-04-05T10:56:33.425Z,26.60
2023-04-05T10:59:01.649Z,26.20
2023-04-05T11:01:29.120Z,25.90
2023-04-05T11:03:58.922Z,25.70
2023-04-05T11:06:33.622Z,25.70
2023-04-05T11:09:15.584Z,25.50
2023-04-05T11:11:50.905Z,25.90
2023-04-05T11:14:37.449Z,26.10
2023-04-05T11:17:04.877Z,26.20
2023-04-05T11:19:43.728Z,26.50
2023-04-05T11:22:27.528Z,27.00
2023-04-05T11:25:03.299Z,26.80
2023-04-05T11:27:37.204Z,27.00
2023-04-05T11:30:06.535Z,27.20
2023-04-05T11:32:44.553Z,27.30
2023-04-05T11:35:23.373Z,27.30
2023-04-05T11:38:08.548Z,27.40
2023-04-05T11:40:40.458Z,27.50
2023-04-05T11:43:14.340Z,27.60
2023-04-05T11:45:47.870Z,27.60
2023-04-05T11:48:17.066Z,27.60
2023-04-05T11:50:49.599Z,27.60
2023-04-05T11:53:19.549Z,27.60
2023-04-05T11:55:51.224Z,27.70
2023-04-05T11:58:25.507Z,27.70
2023-04-05T12:01:01.343Z,27.40
2023-04-05T12:03:31.629Z,27.50
2023-04-05T12:06:02.989Z,27.70
2023-04-05T12:08:53.254Z,27.80
2023-04-05T12:11:36.853Z,27.70
2023-04-05T12:14:03.970Z,28.00
2023-04-05T12:16:33.901Z,28.20
2023-04-05T12:19:03.459Z,28.00
2023-04-05T12:21:30.531Z,28.10
2023-04-05T12:23:59.666Z,28.40
2023-04-05T12:26:26.833Z,28.30
2023-04-05T12:29:01.998Z,28.30
2023-04-05T12:31:49.787Z,28.50
2023-04-05T12:34:26.126Z,28.30
2023-04-05T12:36:53.537Z,28.30
2023-04-05T12:39:25.187Z,28.50
2023-04-05T12:42:03.290Z,28.30
2023-04-05T12:44:31.350Z,28.10
2023-04-05T12:47:11.012Z,28.20
2023-04-05T12:49:41.247Z,28.20
2023-04-05T12:52:08.882Z,28.40
2023-04-05T12:54:37.892Z,28.20
2023-04-05T12:57:09.016Z,28.10
2023-04-05T12:59:38.447Z,28.10
2023-04-05T13:02:07.404Z,27.90
2023-04-05T13:04:36.588Z,28.00
2023-04-05T13:07:03.480Z,28.00
2023-04-05T13:09:32.865Z,28.00
2023-04-05T13:12:04.429Z,28.10
2023-04-05T13:14:31.457Z,28.20
2023-04-05T13:17:00.866Z,28.30
2023-04-05T13:19:30.877Z,28.30
2023-04-05T13:22:00.622Z,28.40
2023-04-05T13:24:27.470Z,28.50
2023-04-05T13:26:56.850Z,28.40
2023-04-05T13:29:26.059Z,28.40
2023-04-05T13:31:52.967Z,28.60
2023-04-05T13:34:19.899Z,28.70
2023-04-05T13:36:48.470Z,28.70
2023-04-05T13:39:15.444Z,28.70
2023-04-05T13:41:44.681Z,28.70
2023-04-05T13:44:11.766Z,28.80
2023-04-05T13:46:41.109Z,28.80
2023-04-05T13:49:12.970Z,28.90
2023-04-05T13:51:44.840Z,29.00
2023-04-05T13:54:16.419Z,29.10
2023-04-05T13:56:43.213Z,29.60
2023-04-05T13:59:16.579Z,29.20
2023-04-05T14:01:49.180Z,29.00
2023-04-05T14:04:18.860Z,28.80
2023-04-05T14:06:46.313Z,28.70
2023-04-05T14:09:13.339Z,28.70
2023-04-05T14:11:42.831Z,28.70
2023-04-05T14:14:12.882Z,28.40
2023-04-05T14:16:44.538Z,28.40
2023-04-05T14:19:13.860Z,28.40
2023-04-05T14:21:41.004Z,28.40
2023-04-05T14:24:15.331Z,28.40
2023-04-05T14:26:49.882Z,28.40
2023-04-05T14:29:20.402Z,28.50
2023-04-05T14:31:49.879Z,28.50
2023-04-05T14:34:19.818Z,28.60
2023-04-05T14:36:46.875Z,28.70
2023-04-05T14:39:16.269Z,28.70
2023-04-05T14:41:52.422Z,28.50
2023-04-05T14:44:21.492Z,28.50
2023-04-05T14:46:55.462Z,28.40
2023-04-05T14:49:27.040Z,28.50
2023-04-05T14:51:53.874Z,28.80
2023-04-05T14:54:23.183Z,28.90
2023-04-05T14:56:50.127Z,28.90
2023-04-05T14:59:17.075Z,29.00
2023-04-05T15:01:47.455Z,28.90
2023-04-05T15:04:17.089Z,28.80
2023-04-05T15:06:46.570Z,28.80
2023-04-05T15:09:13.661Z,28.80
2023-04-05T15:11:40.879Z,28.80
2023-04-05T15:14:11.565Z,28.90
2023-04-05T15:16:47.274Z,28.90
2023-04-05T15:19:16.624Z,29.00
2023-04-05T15:21:44.027Z,28.90
2023-04-05T15:24:13.879Z,28.80
2023-04-05T15:26:45.494Z,28.70
2023-04-05T15:29:14.589Z,28.70
2023-04-05T15:31:41.884Z,28.80
2023-04-05T15:34:11.062Z,28.90
2023-04-05T15:36:38.072Z,28.80
2023-04-05T15:39:09.602Z,28.80
2023-04-05T15:41:36.528Z,28.80
2023-04-05T15:44:05.882Z,28.80
2023-04-05T15:46:32.914Z,28.90
2023-04-05T15:49:02.415Z,28.70
2023-04-05T15:51:33.192Z,28.60
2023-04-05T15:54:00.432Z,28.60
2023-04-05T15:56:29.701Z,28.70
2023-04-05T15:59:03.612Z,28.80
2023-04-05T16:01:31.116Z,28.90
2023-04-05T16:04:00.618Z,29.00
2023-04-05T16:06:29.730Z,29.00
2023-04-05T16:08:59.425Z,29.00
2023-04-05T16:11:26.874Z,29.10
2023-04-05T16:13:54.429Z,29.00
2023-04-05T16:16:38.182Z,29.10
2023-04-05T16:19:15.045Z,29.10
2023-04-05T16:21:44.268Z,29.10
2023-04-05T16:24:13.798Z,29.10
2023-04-05T16:26:46.417Z,29.00
2023-04-05T16:29:15.521Z,28.80
2023-04-05T16:31:47.414Z,28.90
2023-04-05T16:34:16.916Z,28.80
2023-04-05T16:36:43.983Z,28.80
2023-04-05T16:39:11.188Z,28.80
2023-04-05T16:41:42.980Z,28.80
2023-04-05T16:44:10.383Z,28.80
2023-04-05T16:46:37.768Z,28.90
2023-04-05T16:49:07.175Z,28.90
2023-04-05T16:51:36.502Z,28.90
2023-04-05T16:54:03.665Z,29.10
2023-04-05T16:56:30.691Z,29.10
2023-04-05T16:58:59.835Z,29.20
2023-04-05T17:01:27.825Z,29.20
2023-04-05T17:04:00.062Z,29.20
2023-04-05T17:06:33.540Z,29.20
2023-04-05T17:09:00.732Z,29.40
2023-04-05T17:11:30.939Z,29.50
2023-04-05T17:14:00.862Z,29.60
2023-04-05T17:16:30.150Z,29.60
2023-04-05T17:19:00.054Z,29.60
2023-04-05T17:21:27.074Z,29.50
2023-04-05T17:23:57.024Z,29.50
2023-04-05T17:26:26.609Z,29.60
2023-04-05T17:28:53.934Z,29.50
2023-04-05T17:31:20.970Z,29.50
2023-04-05T17:33:52.419Z,29.50
2023-04-05T17:36:19.380Z,30.00
2023-04-05T17:38:46.350Z,29.50
2023-04-05T17:41:13.325Z,29.50
2023-04-05T17:43:40.570Z,29.40
2023-04-05T17:46:13.755Z,29.40
2023-04-05T17:48:46.345Z,29.30
2023-04-05T17:51:13.326Z,29.40
2023-04-05T17:53:40.392Z,29.30
2023-04-05T17:56:07.370Z,29.30
2023-04-05T17:58:37.020Z,29.20
2023-04-05T18:01:10.392Z,29.20
2023-04-05T18:03:37.489Z,29.30
2023-04-05T18:06:04.701Z,29.30
2023-04-05T18:08:31.936Z,29.40
2023-04-05T18:11:02.781Z,29.40
2023-04-05T18:13:32.402Z,29.40
2023-04-05T18:16:00.409Z,29.50
2023-04-05T18:18:28.626Z,29.50
2023-04-05T18:20:56.203Z,29.60
2023-04-05T18:23:25.829Z,29.70
2023-04-05T18:25:57.651Z,29.80
2023-04-05T18:28:24.668Z,30.00
2023-04-05T18:30:51.761Z,30.20
2023-04-05T18:33:23.626Z,30.30
2023-04-05T18:35:51.780Z,30.40
2023-04-05T18:38:19.762Z,30.50
2023-04-05T18:40:51.556Z,30.50
2023-04-05T18:43:21.042Z,30.60
2023-04-05T18:45:48.452Z,30.70
2023-04-05T18:48:18.451Z,30.80
2023-04-05T18:50:47.928Z,30.90
2023-04-05T18:53:17.299Z,31.10
2023-04-05T18:55:46.344Z,31.10
2023-04-05T18:58:15.783Z,31.10
2023-04-05T19:00:44.977Z,31.30
2023-04-05T19:03:14.285Z,31.30
2023-04-05T19:05:45.536Z,31.40
2023-04-05T19:08:12.480Z,31.40
2023-04-05T19:10:40.095Z,31.50
2023-04-05T19:13:07.143Z,31.60
2023-04-05T19:15:38.207Z,31.60
2023-04-05T19:18:05.944Z,31.80
2023-04-05T19:20:35.469Z,31.90
2023-04-05T19:23:04.505Z,31.90
2023-04-05T19:25:33.704Z,31.90
2023-04-05T19:28:01.381Z,32.60
2023-04-05T19:30:33.501Z,32.00
2023-04-05T19:33:02.978Z,32.10
2023-04-05T19:35:31.877Z,32.10
2023-04-05T19:37:59.380Z,32.30
2023-04-05T19:40:27.068Z,32.40
2023-04-05T19:42:54.160Z,32.50
2023-04-05T19:45:32.540Z,32.50
2023-04-05T19:48:02.095Z,32.60
2023-04-05T19:50:37.651Z,32.60
2023-04-05T19:53:08.098Z,32.50
2023-04-05T19:55:39.295Z,32.60
2023-04-05T19:58:09.350Z,32.60
2023-04-05T20:00:52.567Z,32.70
2023-04-05T20:03:31.952Z,32.60
2023-04-05T20:06:16.971Z,32.90
2023-04-05T20:08:48.292Z,32.80
2023-04-05T20:11:22.179Z,32.90
2023-04-05T20:13:56.438Z,33.00
2023-04-05T20:16:27.575Z,33.10
2023-04-05T20:18:57.599Z,33.10
2023-04-05T20:21:24.542Z,33.10
2023-04-05T20:23:51.429Z,33.20
2023-04-05T20:26:24.972Z,33.20
2023-04-05T20:28:56.215Z,33.30
2023-04-05T20:31:29.268Z,33.30
2023-04-05T20:34:12.801Z,33.40
2023-04-05T20:36:55.040Z,33.60
2023-04-05T20:39:23.691Z,33.60
2023-04-05T20:41:50.804Z,33.60
2023-04-05T20:44:20.326Z,33.60
2023-04-05T20:46:49.582Z,33.80
2023-04-05T20:49:16.828Z,33.80
2023-04-05T20:51:43.766Z,33.90
2023-04-05T20:54:11.373Z,34.00
2023-04-05T20:56:41.148Z,34.00
2023-04-05T20:59:08.711Z,34.10
2023-04-05T21:01:37.798Z,34.10
2023-04-05T21:04:06.498Z,34.20
2023-04-05T21:06:37.198Z,34.10
2023-04-05T21:09:05.771Z,34.20
2023-04-05T21:11:32.790Z,34.30
2023-04-05T21:13:59.777Z,34.40
2023-04-05T21:16:27.188Z,34.40
2023-04-05T21:18:57.329Z,34.50
2023-04-05T21:21:26.132Z,34.50
2023-04-05T21:23:56.202Z,34.60
2023-04-05T21:26:23.252Z,34.60
2023-04-05T21:28:50.390Z,34.70
2023-04-05T21:31:17.544Z,34.80
2023-04-05T21:33:47.588Z,34.80
2023-04-05T21:36:14.802Z,34.90
2023-04-05T21:38:43.956Z,35.00
2023-04-05T21:41:13.335Z,35.00
2023-04-05T21:43:40.306Z,35.10
2023-04-05T21:46:09.775Z,35.10
2023-04-05T21:48:41.465Z,35.20
2023-04-05T21:51:08.292Z,35.30
2023-04-05T21:53:35.329Z,35.50
2023-04-05T21:56:05.318Z,35.20
2023-04-05T21:58:34.557Z,35.30
2023-04-05T22:01:01.506Z,35.40
2023-04-05T22:03:33.261Z,35.50
2023-04-05T22:06:01.931Z,35.60
2023-04-05T22:08:34.099Z,35.70
2023-04-05T22:11:01.174Z,35.70
2023-04-05T22:13:30.774Z,35.80
2023-04-05T22:16:04.744Z,35.80
2023-04-05T22:18:34.867Z,36.00
2023-04-05T22:21:03.871Z,36.00
2023-04-05T22:23:30.846Z,36.10
2023-04-05T22:25:57.767Z,36.10
2023-04-05T22:28:30.350Z,36.10
2023-04-05T22:30:59.755Z,36.20
2023-04-05T22:33:27.209Z,36.20
2023-04-05T22:35:56.260Z,36.30
2023-04-05T22:38:25.768Z,36.30
2023-04-05T22:40:57.492Z,36.40
2023-04-05T22:43:27.964Z,36.40
2023-04-05T22:45:54.986Z,36.50
2023-04-05T22:48:22.063Z,36.50
2023-04-05T22:50:51.536Z,36.60
2023-04-05T22:53:18.495Z,36.60
2023-04-05T22:55:45.984Z,36.70
2023-04-05T22:58:16.648Z,36.80
2023-04-05T23:00:44.108Z,36.80
2023-04-05T23:03:13.264Z,36.80
2023-04-05T23:05:40.210Z,36.80
2023-04-05T23:08:07.121Z,36.80
2023-04-05T23:10:34.114Z,37.10
2023-04-05T23:13:01.430Z,36.90
2023-04-05T23:15:28.427Z,36.90
2023-04-05T23:17:57.659Z,37.00
2023-04-05T23:20:24.663Z,37.00
2023-04-05T23:22:51.573Z,37.00
2023-04-05T23:25:18.553Z,37.70
2023-04-05T23:27:45.473Z,37.40
2023-04-05T23:30:13.016Z,37.20
2023-04-05T23:32:42.065Z,37.20
2023-04-05T23:35:09.401Z,37.30
2023-04-05T23:37:36.361Z,37.40
2023-04-05T23:40:04.916Z,38.10
2023-04-05T23:42:32.422Z,37.40
2023-04-05T23:45:01.921Z,37.40
2023-04-05T23:47:31.990Z,37.40
2023-04-05T23:49:58.937Z,37.40
2023-04-05T23:52:26.079Z,37.40
2023-04-05T23:54:53.032Z,37.40
2023-04-05T23:57:19.993Z,37.50
2023-04-05T23:59:50.442Z,37.50
